Time;durP1;ratioP1;P1;durP2;ratioP2;P2;SDS_P1;SDS_P2;PMS_P1;PMS_P2;Temp;Humidity;BMP_temperature;BMP_pressure;BME280_temperature;BME280_humidity;BME280_pressure;Samples;Min_cycle;Max_cycle;Signal;HPM_P1;HPM_P2
2021/12/31 00:00:08;;;;;;;0.40;0.40;;;;;;;6.00;100.00;97499.63;5065152;28;20063;-68
2021/12/31 00:02:35;;;;;;;4.00;3.70;;;;;;;6.02;100.00;97498.16;5047129;28;20051;-65
2021/12/31 00:05:03;;;;;;;1.63;1.52;;;;;;;6.05;100.00;97488.44;5065207;28;20096;-65
2021/12/31 00:07:30;;;;;;;0.40;0.40;;;;;;;6.00;100.00;97496.88;5064740;28;20053;-65
2021/12/31 00:10:00;;;;;;;2.10;1.98;;;;;;;5.96;100.00;97504.16;5046721;28;20046;-67
2021/12/31 00:12:27;;;;;;;2.97;2.45;;;;;;;5.94;100.00;97478.97;5046953;28;20057;-64
2021/12/31 00:14:54;;;;;;;1.90;1.80;;;;;;;5.84;100.00;97487.56;5064959;28;20052;-67
2021/12/31 00:17:21;;;;;;;0.82;0.82;;;;;;;5.22;100.00;97384.78;5065020;28;20067;-66
2021/12/31 00:19:50;;;;;;;0.57;0.57;;;;;;;5.96;100.00;97498.66;5054570;28;20052;-65
2021/12/31 00:24:43;;;;;;;0.50;0.50;;;;;;;5.93;100.00;97493.81;5044517;28;20049;-67
2021/12/31 00:27:09;;;;;;;3.47;3.25;;;;;;;5.94;100.00;97495.47;5044612;28;20055;-64
2021/12/31 00:29:36;;;;;;;1.52;1.52;;;;;;;5.91;100.00;97496.13;5044284;28;20068;-67
2021/12/31 00:32:03;;;;;;;2.03;1.92;;;;;;;5.73;100.00;97494.53;5044474;28;20056;-66
2021/12/31 00:34:30;;;;;;;5.22;4.78;;;;;;;5.39;100.00;97450.66;5044775;28;20504;-65
2021/12/31 00:36:56;;;;;;;0.40;0.40;;;;;;;5.76;100.00;97515.84;5044286;28;20053;-66
2021/12/31 00:39:23;;;;;;;0.70;0.70;;;;;;;5.36;100.00;97507.03;5026743;28;20052;-64
2021/12/31 00:41:50;;;;;;;1.42;1.40;;;;;;;5.58;100.00;97498.59;5044411;28;20071;-66
2021/12/31 00:44:17;;;;;;;3.88;3.67;;;;;;;5.15;100.00;97425.66;5044194;28;20053;-63
2021/12/31 00:46:43;;;;;;;0.55;0.55;;;;;;;5.64;100.00;97508.28;5044186;28;20049;-64
2021/12/31 00:49:10;;;;;;;0.52;0.52;;;;;;;4.91;100.00;97384.22;5026448;28;20562;-66
2021/12/31 00:51:37;;;;;;;0.40;0.40;;;;;;;5.54;100.00;97502.31;5044121;28;20436;-67
2021/12/31 00:54:04;;;;;;;1.35;1.25;;;;;;;4.95;100.00;97429.88;5044082;28;20056;-66
2021/12/31 00:56:30;;;;;;;0.55;0.55;;;;;;;5.34;100.00;97501.06;5044592;28;20140;-66
2021/12/31 00:58:57;;;;;;;3.10;2.90;;;;;;;5.09;100.00;97465.41;5044443;28;20049;-65
2021/12/31 01:01:25;;;;;;;2.35;1.90;;;;;;;5.32;100.00;97494.28;5044090;28;20064;-64
2021/12/31 01:03:52;;;;;;;0.60;0.60;;;;;;;5.29;100.00;97483.97;5044099;28;20140;-67
2021/12/31 01:06:19;;;;;;;1.00;1.00;;;;;;;5.15;100.00;97455.88;5043791;28;20053;-67
2021/12/31 01:08:46;;;;;;;14.60;6.03;;;;;;;5.22;100.00;97472.66;5025979;28;20051;-66
2021/12/31 01:11:12;;;;;;;0.30;0.30;;;;;;;5.21;100.00;97482.84;5043911;28;20053;-65
2021/12/31 01:13:56;;;;;;;0.50;0.50;;;;;;;4.75;100.00;97407.78;5044304;28;20041;-67
2021/12/31 01:16:34;;;;;;;1.58;1.52;;;;;;;5.23;100.00;97485.25;5026194;28;20055;-66
2021/12/31 01:21:31;;;;;;;6.80;2.40;;;;;;;5.06;100.00;97485.28;5064077;28;20054;-64
2021/12/31 01:23:58;;;;;;;3.95;3.58;;;;;;;4.70;100.00;97438.94;5045968;28;20060;-64
2021/12/31 01:26:25;;;;;;;0.30;0.30;;;;;;;5.13;100.00;97469.94;5063450;28;20052;-64
2021/12/31 01:28:52;;;;;;;2.20;2.03;;;;;;;4.43;100.00;97379.72;5063450;28;20534;-66
2021/12/31 01:31:21;;;;;;;1.08;1.08;;;;;;;5.06;100.00;97457.84;5063440;28;20055;-64
2021/12/31 01:33:47;;;;;;;0.75;0.75;;;;;;;5.06;100.00;97460.56;5045840;28;20056;-66
2021/12/31 01:36:14;;;;;;;4.97;1.52;;;;;;;4.72;100.00;97422.16;5063822;28;20595;-66
2021/12/31 01:38:41;;;;;;;1.45;1.38;;;;;;;4.58;100.00;97414.88;5063604;28;20052;-67
2021/12/31 01:41:08;;;;;;;0.30;0.30;;;;;;;4.79;100.00;97477.38;5063945;28;20537;-65
2021/12/31 01:43:34;;;;;;;0.38;0.38;;;;;;;4.41;100.00;97387.47;5064051;28;20052;-66
2021/12/31 01:46:10;;;;;;;8.57;1.75;;;;;;;4.79;100.00;97452.69;5063607;28;20438;-66
2021/12/31 01:48:59;;;;;;;1.85;1.75;;;;;;;4.75;100.00;97448.94;5063463;28;20569;-64
2021/12/31 01:51:26;;;;;;;0.30;0.30;;;;;;;4.68;100.00;97440.41;5063347;28;20518;-66
2021/12/31 01:53:54;;;;;;;4.28;3.13;;;;;;;4.52;100.00;97487.50;5063462;28;20060;-64
2021/12/31 01:56:23;;;;;;;0.40;0.40;;;;;;;4.62;100.00;97454.28;5063182;28;20045;-66
2021/12/31 01:58:54;;;;;;;3.03;2.78;;;;;;;4.43;100.00;97439.25;5063285;28;20447;-65
2021/12/31 02:01:22;;;;;;;1.30;1.30;;;;;;;4.56;100.00;97463.81;5063718;28;20159;-64
2021/12/31 02:03:51;;;;;;;0.30;0.30;;;;;;;4.01;100.00;97361.31;5066294;28;20055;-66
2021/12/31 02:06:19;;;;;;;1.20;1.15;;;;;;;4.16;100.00;97369.06;5067081;28;20082;-66
2021/12/31 02:08:45;;;;;;;0.55;0.55;;;;;;;4.69;100.00;97449.09;5067705;28;20052;-65
2021/12/31 02:11:16;;;;;;;0.47;0.47;;;;;;;4.68;100.00;97450.25;5067164;28;20049;-66
2021/12/31 02:13:43;;;;;;;0.30;0.30;;;;;;;4.68;100.00;97452.16;5049518;28;20083;-63
2021/12/31 02:16:09;;;;;;;0.35;0.35;;;;;;;4.83;100.00;97450.88;5067083;28;20044;-67
2021/12/31 02:18:36;;;;;;;0.30;0.30;;;;;;;4.86;100.00;97452.97;5067163;28;20053;-66
2021/12/31 02:21:08;;;;;;;0.30;0.30;;;;;;;4.72;100.00;97435.88;5046911;28;20071;-64
2021/12/31 02:23:42;;;;;;;0.40;0.40;;;;;;;4.68;100.00;97434.91;5028913;28;20080;-64
2021/12/31 02:26:11;;;;;;;1.25;1.25;;;;;;;4.58;100.00;97403.91;5029341;28;20055;-64
2021/12/31 02:28:38;;;;;;;0.43;0.43;;;;;;;5.00;100.00;97470.09;5047312;28;20057;-67
2021/12/31 02:31:06;;;;;;;4.00;3.70;;;;;;;4.94;100.00;97482.38;5046542;28;20052;-64
2021/12/31 02:33:33;;;;;;;0.40;0.40;;;;;;;4.99;100.00;97480.28;5046734;28;20049;-65
2021/12/31 02:36:02;;;;;;;0.40;0.40;;;;;;;4.57;100.00;97429.75;5045760;28;20057;-67
2021/12/31 02:38:29;;;;;;;1.80;1.27;;;;;;;5.08;100.00;97477.50;5046991;28;20687;-64
2021/12/31 02:40:56;;;;;;;3.90;3.70;;;;;;;4.58;100.00;97423.13;5046661;28;20061;-64
2021/12/31 02:43:23;;;;;;;0.32;0.32;;;;;;;4.80;100.00;97481.72;5046745;28;20075;-64
2021/12/31 02:45:49;;;;;;;0.30;0.30;;;;;;;2.96;100.00;97213.84;5046532;28;20049;-65
2021/12/31 02:48:24;;;;;;;0.45;0.45;;;;;;;4.77;100.00;97482.38;5028413;28;20049;-66
2021/12/31 02:50:55;;;;;;;1.17;1.17;;;;;;;4.20;100.00;97389.25;5046385;28;20649;-66
2021/12/31 02:53:31;;;;;;;0.30;0.30;;;;;;;4.42;100.00;97487.81;5046679;28;20527;-64
2021/12/31 02:56:04;;;;;;;0.40;0.40;;;;;;;3.48;100.00;97347.00;5028599;28;20053;-67
2021/12/31 02:58:31;;;;;;;0.65;0.65;;;;;;;4.24;100.00;97477.94;5046504;28;20136;-66
2021/12/31 03:00:58;;;;;;;0.30;0.30;;;;;;;4.16;100.00;97478.72;5046190;28;20055;-67
2021/12/31 03:03:27;;;;;;;0.30;0.30;;;;;;;3.99;100.00;97467.72;5046384;28;20068;-66
2021/12/31 03:05:55;;;;;;;0.30;0.30;;;;;;;3.62;100.00;97440.81;5046131;28;20049;-66
2021/12/31 03:08:25;;;;;;;0.30;0.30;;;;;;;3.70;100.00;97481.13;5046477;28;20049;-64
2021/12/31 03:10:53;;;;;;;3.60;2.20;;;;;;;3.70;100.00;97494.03;5046453;28;20551;-63
2021/12/31 03:13:20;;;;;;;0.45;0.45;;;;;;;3.61;100.00;97493.97;5046293;28;20048;-66
2021/12/31 03:15:49;;;;;;;0.52;0.45;;;;;;;3.41;100.00;97478.09;5044896;28;20053;-66
2021/12/31 03:18:18;;;;;;;0.82;0.82;;;;;;;3.24;100.00;97453.31;5045941;28;20049;-64
2021/12/31 03:21:04;;;;;;;0.43;0.43;;;;;;;3.56;100.00;97517.94;5062193;28;20048;-64
2021/12/31 03:23:32;;;;;;;0.30;0.30;;;;;;;3.14;100.00;97494.66;5048167;28;20056;-66
2021/12/31 03:25:59;;;;;;;0.30;0.30;;;;;;;2.45;100.00;97389.41;5047879;28;20549;-64
2021/12/31 03:28:26;;;;;;;0.30;0.30;;;;;;;3.27;100.00;97503.91;5066278;28;20048;-65
2021/12/31 03:30:54;;;;;;;0.30;0.30;;;;;;;3.13;100.00;97465.66;5066112;28;20536;-64
2021/12/31 03:33:21;;;;;;;0.60;0.60;;;;;;;3.57;100.00;97503.97;5066038;28;20060;-64
2021/12/31 03:35:48;;;;;;;1.02;1.02;;;;;;;3.20;100.00;97467.97;5048123;28;20074;-66
2021/12/31 03:38:14;;;;;;;0.43;0.43;;;;;;;3.44;100.00;97521.28;5065834;28;20058;-64
2021/12/31 03:40:42;;;;;;;0.40;0.40;;;;;;;3.34;100.00;97513.31;5065731;28;20083;-63
2021/12/31 03:43:08;;;;;;;0.50;0.50;;;;;;;3.38;100.00;97519.78;5066277;28;20448;-64
2021/12/31 03:45:36;;;;;;;1.67;1.60;;;;;;;3.32;100.00;97518.28;5066058;28;20435;-64
2021/12/31 03:48:03;;;;;;;3.30;3.10;;;;;;;2.97;100.00;97473.44;5065633;28;20049;-66
2021/12/31 03:50:30;;;;;;;0.30;0.30;;;;;;;3.33;100.00;97525.38;5065442;28;20049;-67
2021/12/31 03:52:57;;;;;;;12.95;2.33;;;;;;;3.41;100.00;97532.03;5047355;28;20197;-66
2021/12/31 03:55:24;;;;;;;0.40;0.40;;;;;;;1.86;100.00;97291.38;5064940;28;20541;-66
2021/12/31 03:57:51;;;;;;;0.30;0.30;;;;;;;3.40;100.00;97520.25;5065327;28;20064;-63
2021/12/31 04:00:17;;;;;;;0.30;0.30;;;;;;;3.51;100.00;97532.56;5065529;28;20151;-68
2021/12/31 04:02:44;;;;;;;0.95;0.73;;;;;;;3.46;100.00;97524.50;5065608;28;20052;-67
2021/12/31 04:05:11;;;;;;;0.30;0.30;;;;;;;2.96;100.00;97427.25;5047131;28;20066;-64
2021/12/31 04:07:38;;;;;;;0.30;0.30;;;;;;;3.64;100.00;97515.25;5047012;28;20052;-65
2021/12/31 04:10:05;;;;;;;0.93;0.93;;;;;;;3.46;100.00;97530.00;5064856;28;20052;-64
2021/12/31 04:12:32;;;;;;;0.30;0.30;;;;;;;2.71;100.00;97496.25;5064708;28;20365;-64
2021/12/31 04:14:59;;;;;;;0.30;0.30;;;;;;;2.93;100.00;97538.13;5046530;28;20044;-64
2021/12/31 04:17:25;;;;;;;0.30;0.30;;;;;;;3.05;100.00;97529.38;5064368;28;20048;-65
2021/12/31 04:19:54;;;;;;;0.30;0.30;;;;;;;2.71;100.00;97540.00;5046622;28;20211;-67
2021/12/31 04:22:23;;;;;;;0.20;0.20;;;;;;;2.48;100.00;97547.34;5064687;28;20064;-63
2021/12/31 04:27:17;;;;;;;0.30;0.30;;;;;;;2.68;100.00;97589.84;5063845;28;20048;-65
2021/12/31 04:29:50;;;;;;;0.43;0.43;;;;;;;2.52;100.00;97526.47;5064787;28;20049;-63
2021/12/31 04:32:22;;;;;;;0.20;0.20;;;;;;;2.98;100.00;97575.50;5046234;28;20511;-64
2021/12/31 04:34:49;;;;;;;0.30;0.30;;;;;;;3.01;100.00;97577.63;5064295;28;20059;-67
2021/12/31 04:37:16;;;;;;;0.30;0.30;;;;;;;3.02;100.00;97546.38;5064145;28;20045;-63
2021/12/31 04:39:43;;;;;;;0.30;0.30;;;;;;;2.10;100.00;97392.97;5025330;28;20065;-64
2021/12/31 04:42:09;;;;;;;4.50;3.85;;;;;;;3.30;100.00;97575.28;5064031;28;20075;-64
2021/12/31 04:44:36;;;;;;;0.30;0.30;;;;;;;2.92;100.00;97520.06;5064138;28;20052;-66
2021/12/31 04:47:03;;;;;;;0.32;0.32;;;;;;;3.35;100.00;97590.78;5063606;28;20048;-66
2021/12/31 04:49:30;;;;;;;2.65;2.45;;;;;;;2.98;100.00;97513.38;5046040;28;20044;-67
2021/12/31 04:51:57;;;;;;;1.55;0.63;;;;;;;0.96;100.00;97186.97;5064207;28;20435;-65
2021/12/31 04:54:24;;;;;;;3.53;3.28;;;;;;;3.08;100.00;97545.16;5045903;28;20056;-65
2021/12/31 04:56:53;;;;;;;0.30;0.30;;;;;;;3.15;100.00;97577.59;5063837;28;20056;-63
2021/12/31 04:59:21;;;;;;;1.00;1.00;;;;;;;3.18;100.00;97585.97;5045845;28;20052;-65
2021/12/31 05:01:53;;;;;;;0.73;0.73;;;;;;;3.17;100.00;97592.56;5063847;28;20052;-65
2021/12/31 05:04:20;;;;;;;0.95;0.95;;;;;;;3.17;100.00;97592.56;5045966;28;20075;-63
2021/12/31 05:06:49;;;;;;;0.30;0.30;;;;;;;3.05;100.00;97611.47;5063521;28;20612;-66
2021/12/31 05:09:16;;;;;;;1.42;1.33;;;;;;;2.81;100.00;97556.19;5064181;28;20056;-66
2021/12/31 05:11:44;;;;;;;0.30;0.30;;;;;;;2.85;100.00;97557.19;5045814;28;20546;-63
2021/12/31 05:14:11;;;;;;;0.30;0.30;;;;;;;3.02;100.00;97601.13;5046498;28;20052;-64
2021/12/31 05:16:38;;;;;;;3.80;3.50;;;;;;;2.54;100.00;97534.38;5064409;28;20474;-67
2021/12/31 05:19:05;;;;;;;0.85;0.85;;;;;;;2.41;100.00;97491.47;5045734;28;20511;-66
2021/12/31 05:21:33;;;;;;;9.48;2.10;;;;;;;2.29;100.00;97493.94;5063414;28;20071;-64
2021/12/31 05:24:00;;;;;;;6.80;3.05;;;;;;;2.50;100.00;97538.81;5045892;28;20056;-66
2021/12/31 05:26:26;;;;;;;0.30;0.30;;;;;;;2.92;100.00;97595.88;5063261;28;20044;-66
2021/12/31 05:28:53;;;;;;;0.30;0.30;;;;;;;3.01;100.00;97588.56;5063212;28;20057;-65
2021/12/31 05:31:20;;;;;;;1.02;1.02;;;;;;;3.01;100.00;97588.56;5063311;28;20139;-66
2021/12/31 05:33:47;;;;;;;2.58;2.42;;;;;;;2.91;100.00;97577.84;5045582;28;20052;-65
2021/12/31 05:36:15;;;;;;;0.30;0.30;;;;;;;2.87;100.00;97598.72;5062786;28;20071;-65
2021/12/31 05:38:43;;;;;;;2.70;1.70;;;;;;;2.80;100.00;97587.38;5044861;28;20057;-64
2021/12/31 05:41:10;;;;;;;1.88;1.77;;;;;;;2.60;100.00;97544.91;5046080;28;20105;-66
2021/12/31 05:43:37;;;;;;;4.47;4.10;;;;;;;2.90;100.00;97587.16;5063953;28;20059;-65
2021/12/31 05:46:03;;;;;;;0.85;0.85;;;;;;;2.73;100.00;97655.38;5045427;28;20177;-64
2021/12/31 05:48:31;;;;;;;0.75;0.70;;;;;;;2.73;100.00;97581.53;5063298;28;20837;-66
2021/12/31 05:50:58;;;;;;;7.72;7.05;;;;;;;2.79;100.00;97592.06;5063701;28;20051;-65
2021/12/31 05:53:24;;;;;;;0.77;0.73;;;;;;;2.34;100.00;97540.28;5063598;28;20056;-65
2021/12/31 05:55:52;;;;;;;7.00;5.18;;;;;;;2.68;100.00;97585.19;5063041;28;20052;-65
2021/12/31 05:58:19;;;;;;;1.00;1.00;;;;;;;2.75;100.00;97596.50;5063452;28;20053;-64
2021/12/31 06:00:45;;;;;;;0.95;0.93;;;;;;;2.69;100.00;97596.94;5045869;28;20482;-65
2021/12/31 06:03:12;;;;;;;0.50;0.50;;;;;;;2.60;100.00;97571.44;5063734;28;20067;-67
2021/12/31 06:07:39;;;;;;;1.58;1.50;;;;;;;2.22;100.00;97579.06;5076258;27;1293906;-63
2021/12/31 06:10:06;;;;;;;1.00;1.00;;;;;;;1.37;100.00;97452.38;5119126;28;20055;-64
2021/12/31 06:12:37;;;;;;;4.20;2.65;;;;;;;1.99;100.00;97565.59;5104139;28;20067;-73
2021/12/31 06:15:08;;;;;;;0.30;0.30;;;;;;;2.20;100.00;97588.66;5100220;28;20082;-72
2021/12/31 06:17:36;;;;;;;0.30;0.30;;;;;;;1.76;100.00;97507.28;5099056;28;20124;-65
2021/12/31 06:20:05;;;;;;;2.35;2.15;;;;;;;2.45;100.00;97597.16;5099106;28;20043;-71
2021/12/31 06:22:32;;;;;;;0.30;0.30;;;;;;;2.50;100.00;97582.56;5099361;28;20052;-74
2021/12/31 06:24:59;;;;;;;0.43;0.43;;;;;;;2.60;100.00;97598.78;5083603;28;20052;-63
2021/12/31 06:27:26;;;;;;;1.10;1.10;;;;;;;1.58;100.00;97433.69;5080407;28;20048;-74
2021/12/31 06:29:52;;;;;;;1.80;1.73;;;;;;;2.17;100.00;97551.00;5080022;28;20214;-73
2021/12/31 06:32:19;;;;;;;7.90;3.88;;;;;;;2.60;100.00;97620.66;5080643;28;20048;-64
2021/12/31 06:34:46;;;;;;;7.25;6.65;;;;;;;2.57;100.00;97607.59;5078754;28;20048;-65
2021/12/31 06:37:13;;;;;;;1.40;1.40;;;;;;;1.80;100.00;97469.28;5090678;28;20569;-60
2021/12/31 06:39:42;;;;;;;1.35;1.33;;;;;;;2.66;100.00;97617.50;5099837;28;20056;-60
2021/12/31 06:42:09;;;;;;;5.05;4.68;;;;;;;2.29;100.00;97633.31;5098970;28;20571;-61
2021/12/31 06:44:37;;;;;;;1.90;1.85;;;;;;;2.76;100.00;97643.84;5099925;28;20059;-62
2021/12/31 06:47:05;;;;;;;1.45;1.35;;;;;;;2.56;100.00;97668.88;5096595;28;20167;-59
2021/12/31 06:49:32;;;;;;;0.40;0.40;;;;;;;-0.46;100.00;97170.88;5079837;28;20048;-61
2021/12/31 06:51:59;;;;;;;0.50;0.50;;;;;;;1.93;100.00;97594.13;5080109;28;20434;-62
2021/12/31 06:54:26;;;;;;;12.60;5.63;;;;;;;2.34;100.00;97666.81;5085922;28;20617;-61
2021/12/31 06:56:53;;;;;;;4.10;3.72;;;;;;;2.61;100.00;97666.00;5098761;28;20526;-62
2021/12/31 06:59:20;;;;;;;5.05;3.35;;;;;;;2.84;100.00;97670.47;5094251;28;20052;-61
2021/12/31 07:01:47;;;;;;;7.68;6.93;;;;;;;1.94;100.00;97513.78;5097557;28;20130;-60
2021/12/31 07:04:14;;;;;;;2.42;2.20;;;;;;;2.62;100.00;97602.00;5098434;28;20048;-63
2021/12/31 07:06:40;;;;;;;2.17;2.00;;;;;;;3.09;100.00;97680.88;5095641;28;20491;-63
2021/12/31 07:09:07;;;;;;;2.00;1.90;;;;;;;2.29;100.00;97543.13;5088522;28;20075;-65
2021/12/31 07:11:34;;;;;;;2.58;2.47;;;;;;;3.10;100.00;97660.59;5092060;28;20058;-61
2021/12/31 07:14:03;;;;;;;2.05;1.92;;;;;;;2.37;100.00;97512.34;5099684;28;20120;-64
2021/12/31 07:16:30;;;;;;;1.23;1.23;;;;;;;3.07;100.00;97598.25;5097037;28;20082;-62
2021/12/31 07:18:57;;;;;;;4.30;3.90;;;;;;;3.66;100.00;97674.63;5086104;28;20070;-62
2021/12/31 07:21:23;;;;;;;6.32;4.45;;;;;;;3.45;100.00;97643.34;5084647;28;20075;-61
2021/12/31 07:23:50;;;;;;;2.55;2.35;;;;;;;2.37;100.00;97471.34;5074591;28;20098;-66
2021/12/31 07:26:17;;;;;;;4.85;4.57;;;;;;;3.39;100.00;97622.69;5082731;28;20051;-62
2021/12/31 07:28:44;;;;;;;9.07;8.38;;;;;;;3.94;100.00;97684.34;5085167;28;20468;-60
2021/12/31 07:31:14;;;;;;;11.05;7.25;;;;;;;3.45;100.00;97609.69;5063857;28;20062;-60
2021/12/31 07:33:41;;;;;;;8.95;8.07;;;;;;;3.90;100.00;97688.03;5064987;28;20056;-61
2021/12/31 07:36:08;;;;;;;15.45;14.02;;;;;;;4.05;100.00;97685.72;5081906;28;20441;-68
2021/12/31 07:38:39;;;;;;;10.93;10.07;;;;;;;3.70;100.00;97666.59;5085764;28;20087;-61
2021/12/31 07:41:06;;;;;;;6.28;5.43;;;;;;;3.38;99.86;97596.44;5084479;28;20047;-60
2021/12/31 07:43:33;;;;;;;15.57;12.35;;;;;;;4.10;99.16;97682.03;5082922;28;20044;-69
2021/12/31 07:46:00;;;;;;;16.35;11.32;;;;;;;3.85;99.20;97688.97;5083763;28;20052;-70
2021/12/31 07:48:26;;;;;;;2.17;2.08;;;;;;;3.06;98.02;97569.28;5068847;28;20050;-67
2021/12/31 07:50:54;;;;;;;6.80;6.18;;;;;;;3.92;98.85;97697.53;5082584;28;20559;-69
2021/12/31 07:53:21;;;;;;;3.03;2.80;;;;;;;4.00;99.10;97694.06;5077939;28;20535;-68
2021/12/31 07:55:48;;;;;;;5.00;4.60;;;;;;;1.79;99.95;97385.75;5081082;28;20131;-70
2021/12/31 07:58:15;;;;;;;3.65;2.20;;;;;;;3.62;100.00;97648.19;5079846;28;20047;-59
2021/12/31 08:00:41;;;;;;;0.30;0.30;;;;;;;3.54;100.00;97614.09;5083397;28;20109;-66
2021/12/31 08:03:08;;;;;;;0.35;0.35;;;;;;;3.47;100.00;97580.88;5083168;28;20052;-66
2021/12/31 08:05:35;;;;;;;2.03;1.92;;;;;;;4.26;100.00;97686.81;5083292;28;20059;-64
2021/12/31 08:08:05;;;;;;;0.63;0.63;;;;;;;4.21;100.00;97650.47;5083042;28;20055;-65
2021/12/31 08:10:35;;;;;;;1.02;1.02;;;;;;;3.98;97.80;97592.13;5083826;28;20067;-62
2021/12/31 08:13:23;;;;;;;1.38;1.38;;;;;;;4.46;98.08;97689.00;5083623;28;20048;-65
2021/12/31 08:15:50;;;;;;;0.30;0.30;;;;;;;3.93;99.23;97573.13;5083018;28;20048;-67
2021/12/31 08:18:17;;;;;;;0.75;0.75;;;;;;;3.28;100.00;97500.88;5082944;28;20047;-69
2021/12/31 08:20:44;;;;;;;0.57;0.57;;;;;;;4.35;99.12;97646.53;5084124;28;20052;-65
2021/12/31 08:23:14;;;;;;;0.50;0.50;;;;;;;4.92;96.38;97674.00;5082266;28;20036;-62
2021/12/31 08:25:42;;;;;;;0.60;0.60;;;;;;;5.02;96.64;97687.44;5080830;28;20048;-64
2021/12/31 08:28:09;;;;;;;0.52;0.52;;;;;;;4.96;97.56;97689.53;5082531;28;20067;-69
2021/12/31 08:30:36;;;;;;;1.67;1.17;;;;;;;3.35;98.31;97451.94;5082099;28;20466;-61
2021/12/31 08:33:03;;;;;;;2.15;1.95;;;;;;;4.10;100.00;97677.34;5083898;28;20442;-69
2021/12/31 08:35:30;;;;;;;0.40;0.40;;;;;;;4.24;100.00;97623.25;5082522;28;20052;-68
2021/12/31 08:37:57;;;;;;;0.30;0.30;;;;;;;5.07;100.00;97665.34;5084726;28;20071;-71
2021/12/31 08:40:24;;;;;;;0.30;0.30;;;;;;;4.28;96.73;97509.06;5083460;28;20050;-70
2021/12/31 08:42:51;;;;;;;0.30;0.30;;;;;;;4.00;97.89;97455.59;5082771;28;20048;-73
2021/12/31 08:45:19;;;;;;;0.40;0.40;;;;;;;5.63;96.51;97655.06;5081588;28;20044;-64
2021/12/31 08:47:46;;;;;;;3.70;3.40;;;;;;;5.28;93.93;97641.66;5084425;28;20055;-64
2021/12/31 08:50:13;;;;;;;0.90;0.90;;;;;;;5.58;94.20;97635.19;5082469;28;20058;-66
2021/12/31 08:52:40;;;;;;;1.42;1.40;;;;;;;5.62;95.19;97641.66;5083757;28;20522;-65
2021/12/31 08:55:09;;;;;;;0.82;0.82;;;;;;;4.49;94.73;97492.81;5081849;28;20830;-64
2021/12/31 08:57:36;;;;;;;2.95;2.78;;;;;;;4.84;96.26;97532.09;5081877;28;20054;-67
2021/12/31 09:00:05;;;;;;;3.85;2.45;;;;;;;5.77;95.41;97605.44;5084166;28;20112;-65
2021/12/31 09:02:33;;;;;;;0.47;0.47;;;;;;;6.33;93.46;97629.91;5084121;28;20555;-64
2021/12/31 09:04:59;;;;;;;2.05;0.98;;;;;;;5.98;94.84;97618.19;5083040;28;20058;-65
2021/12/31 09:07:26;;;;;;;1.10;1.10;;;;;;;6.23;94.89;97624.75;5081266;28;20048;-68
2021/12/31 09:09:53;;;;;;;0.38;0.38;;;;;;;6.36;94.35;97585.22;5082446;28;20058;-71
2021/12/31 09:12:20;;;;;;;0.50;0.50;;;;;;;6.59;94.12;97585.78;5083171;28;20109;-69
2021/12/31 09:14:47;;;;;;;0.32;0.32;;;;;;;6.40;93.31;97553.19;5083927;28;20131;-67
2021/12/31 09:17:14;;;;;;;1.40;1.40;;;;;;;6.72;92.90;97599.31;5084178;28;20056;-66
2021/12/31 09:19:41;;;;;;;0.40;0.40;;;;;;;6.76;90.14;97567.22;5084476;28;20052;-67
2021/12/31 09:22:09;;;;;;;1.27;1.27;;;;;;;6.79;91.85;97539.03;5084256;28;20055;-66
2021/12/31 09:24:36;;;;;;;0.60;0.60;;;;;;;7.21;91.09;97590.25;5084013;28;20134;-66
2021/12/31 09:27:02;;;;;;;1.05;1.05;;;;;;;7.31;88.75;97600.88;5081320;28;20052;-68
2021/12/31 09:29:29;;;;;;;2.05;1.95;;;;;;;7.20;89.08;97599.66;5083575;28;20092;-65
2021/12/31 09:31:56;;;;;;;4.03;2.67;;;;;;;6.62;89.94;97489.59;5082688;28;20040;-68
2021/12/31 09:34:23;;;;;;;1.55;1.50;;;;;;;6.64;93.16;97596.63;5083661;28;20079;-62
2021/12/31 09:36:50;;;;;;;0.93;0.90;;;;;;;6.73;92.89;97576.16;5083697;28;20063;-62
2021/12/31 09:39:17;;;;;;;2.25;2.15;;;;;;;6.45;95.14;97591.50;5083949;28;20056;-65
2021/12/31 09:41:44;;;;;;;0.45;0.45;;;;;;;6.46;96.21;97590.38;5083286;28;20058;-63
2021/12/31 09:44:14;;;;;;;0.80;0.80;;;;;;;6.01;96.45;97473.75;5083228;28;20055;-62
2021/12/31 09:46:42;;;;;;;0.57;0.57;;;;;;;6.05;96.77;97426.00;5083779;28;20058;-63
2021/12/31 09:49:09;;;;;;;1.83;1.73;;;;;;;7.00;95.65;97572.88;5082532;28;20059;-63
2021/12/31 09:51:41;;;;;;;2.35;2.13;;;;;;;6.98;95.00;97547.66;5083616;28;20442;-64
2021/12/31 09:54:10;;;;;;;1.67;1.58;;;;;;;7.37;94.77;97563.72;5083669;28;20058;-64
2021/12/31 09:56:41;;;;;;;1.55;1.52;;;;;;;7.30;95.53;97557.91;5083913;28;20048;-65
2021/12/31 09:59:08;;;;;;;5.68;1.75;;;;;;;7.51;95.65;97550.44;5083335;28;20052;-65
2021/12/31 10:01:46;;;;;;;1.30;1.30;;;;;;;7.64;94.25;97538.34;5083654;28;20048;-66
2021/12/31 10:04:13;;;;;;;0.60;0.60;;;;;;;7.60;92.58;97548.41;5083367;28;20048;-65
2021/12/31 10:07:10;;;;;;;0.40;0.40;;;;;;;7.58;93.02;97542.44;5081541;28;20135;-66
2021/12/31 10:09:40;;;;;;;1.85;1.75;;;;;;;7.64;93.40;97532.00;5083235;28;20530;-66
2021/12/31 10:12:12;;;;;;;0.60;0.60;;;;;;;7.86;92.11;97528.03;5081824;28;20048;-66
2021/12/31 10:14:40;;;;;;;0.93;0.93;;;;;;;7.97;88.28;97504.38;5083818;28;20044;-67
2021/12/31 10:17:08;;;;;;;1.08;1.08;;;;;;;8.32;86.87;97524.94;5082274;28;20139;-66
2021/12/31 10:19:35;;;;;;;7.43;2.58;;;;;;;8.25;86.85;97541.28;5081681;28;20055;-67
2021/12/31 10:22:02;;;;;;;0.60;0.60;;;;;;;7.16;85.94;97369.28;5063030;28;20159;-67
2021/12/31 10:24:38;;;;;;;5.88;5.35;;;;;;;8.30;87.38;97496.91;5061930;28;20044;-65
2021/12/31 10:27:13;;;;;;;0.50;0.50;;;;;;;8.74;86.98;97529.09;5063357;28;20147;-67
2021/12/31 10:29:55;;;;;;;1.80;1.70;;;;;;;8.94;85.52;97525.38;5061920;28;20048;-66
2021/12/31 10:32:28;;;;;;;0.40;0.40;;;;;;;8.88;85.98;97524.00;5063334;28;20048;-67
2021/12/31 10:35:08;;;;;;;0.70;0.70;;;;;;;9.22;85.67;97512.41;5063576;28;20053;-67
2021/12/31 10:37:44;;;;;;;0.40;0.40;;;;;;;9.20;85.13;97478.78;5061620;28;20060;-65
2021/12/31 10:40:24;;;;;;;1.50;1.45;;;;;;;9.58;84.18;97498.44;5062944;28;20067;-65
2021/12/31 10:43:18;;;;;;;5.68;5.07;;;;;;;9.62;82.68;97482.78;5061284;28;20048;-68
2021/12/31 10:46:09;;;;;;;0.98;0.93;;;;;;;9.35;82.83;97425.53;5061555;28;20079;-70
2021/12/31 10:48:38;;;;;;;1.15;1.15;;;;;;;9.95;81.82;97472.22;5062570;28;20055;-67
2021/12/31 10:51:05;;;;;;;0.75;0.75;;;;;;;10.19;80.18;97499.75;5063273;28;20520;-64
2021/12/31 10:53:37;;;;;;;0.55;0.55;;;;;;;10.14;78.54;97464.03;5065028;28;20060;-68
2021/12/31 10:56:11;;;;;;;3.10;2.05;;;;;;;7.90;79.28;97115.28;5066435;28;20056;-67
2021/12/31 10:58:41;;;;;;;0.57;0.57;;;;;;;10.47;78.60;97506.00;5066636;28;20056;-67
2021/12/31 11:01:12;;;;;;;0.50;0.50;;;;;;;10.27;77.90;97476.63;5065491;28;20048;-65
2021/12/31 11:03:40;;;;;;;1.15;1.15;;;;;;;10.72;76.89;97503.81;5067254;28;20056;-65
2021/12/31 11:06:10;;;;;;;0.75;0.75;;;;;;;10.71;77.33;97438.50;5065041;28;20094;-66
2021/12/31 11:08:37;;;;;;;0.57;0.57;;;;;;;10.87;75.80;97442.03;5066929;28;20134;-66
2021/12/31 11:11:04;;;;;;;0.73;0.73;;;;;;;11.66;74.82;97487.69;5064935;28;20064;-66
2021/12/31 11:13:31;;;;;;;4.30;3.15;;;;;;;11.44;74.55;97449.56;5064853;28;20082;-67
2021/12/31 11:15:59;;;;;;;0.55;0.55;;;;;;;11.89;72.08;97477.44;5066165;28;20052;-67
2021/12/31 11:18:27;;;;;;;0.68;0.68;;;;;;;12.00;71.22;97475.66;5065775;28;20060;-68
2021/12/31 11:21:00;;;;;;;0.80;0.80;;;;;;;12.02;72.27;97465.00;5078221;28;20060;-67
2021/12/31 11:23:29;;;;;;;1.57;1.50;;;;;;;12.11;72.34;97462.75;5086405;28;20055;-65
2021/12/31 11:26:06;;;;;;;0.50;0.50;;;;;;;12.00;70.59;97439.56;5086943;28;20055;-64
2021/12/31 11:28:37;;;;;;;2.67;2.15;;;;;;;12.27;72.17;97444.00;5086159;28;20105;-67
2021/12/31 11:31:16;;;;;;;3.40;3.10;;;;;;;12.43;71.18;97441.88;5084795;28;20514;-65
2021/12/31 11:34:09;;;;;;;2.45;2.35;;;;;;;12.31;70.95;97439.31;5084854;28;20043;-65
2021/12/31 11:36:44;;;;;;;0.50;0.50;;;;;;;12.19;72.01;97442.28;5084887;28;20477;-68
2021/12/31 11:39:26;;;;;;;1.08;1.08;;;;;;;12.34;72.50;97438.56;5085450;28;20052;-65
2021/12/31 11:41:55;;;;;;;0.75;0.73;;;;;;;10.44;71.58;97146.72;5086108;28;20587;-67
2021/12/31 11:44:24;;;;;;;0.95;0.95;;;;;;;12.10;73.18;97433.41;5086137;28;20078;-67
2021/12/31 11:47:07;;;;;;;1.05;1.05;;;;;;;12.19;72.60;97431.16;5084110;28;20070;-68
2021/12/31 11:49:34;;;;;;;0.80;0.80;;;;;;;12.15;74.14;97436.66;5086099;28;20052;-65